sensor_id;sensor_type;location;lat;lon;timestamp;pressure;altitude;pressure_sealevel;temperature;humidity
43701;BME280;58809;47.984;7.964;2023-02-04T00:01:28;98716.50;;;5.27;100.00
43701;BME280;58809;47.984;7.964;2023-02-04T00:04:30;98713.66;;;5.30;100.00
43701;BME280;58809;47.984;7.964;2023-02-04T00:07:31;98713.03;;;5.26;100.00
43701;BME280;58809;47.984;7.964;2023-02-04T00:10:33;98712.31;;;5.24;100.00
43701;BME280;58809;47.984;7.964;2023-02-04T00:13:34;98718.28;;;5.26;100.00
43701;BME280;58809;47.984;7.964;2023-02-04T00:16:36;98721.75;;;5.27;100.00
43701;BME280;58809;47.984;7.964;2023-02-04T00:19:39;98705.06;;;5.28;100.00
43701;BME280;58809;47.984;7.964;2023-02-04T00:22:41;98711.03;;;5.30;100.00
43701;BME280;58809;47.984;7.964;2023-02-04T00:25:42;98718.19;;;5.28;100.00
43701;BME280;58809;47.984;7.964;2023-02-04T00:28:44;98714.22;;;5.22;100.00
43701;BME280;58809;47.984;7.964;2023-02-04T00:31:45;98715.25;;;5.19;100.00
43701;BME280;58809;47.984;7.964;2023-02-04T00:34:47;98716.31;;;5.17;100.00
43701;BME280;58809;47.984;7.964;2023-02-04T00:37:49;98708.22;;;5.20;100.00
43701;BME280;58809;47.984;7.964;2023-02-04T00:40:51;98703.09;;;5.18;100.00
43701;BME280;58809;47.984;7.964;2023-02-04T00:43:52;98703.81;;;5.20;100.00
43701;BME280;58809;47.984;7.964;2023-02-04T00:46:54;98694.97;;;5.21;100.00
43701;BME280;58809;47.984;7.964;2023-02-04T00:49:56;98695.94;;;5.20;100.00
43701;BME280;58809;47.984;7.964;2023-02-04T00:52:57;98681.97;;;5.20;100.00
43701;BME280;58809;47.984;7.964;2023-02-04T00:56:03;98681.25;;;5.18;100.00
43701;BME280;58809;47.984;7.964;2023-02-04T00:59:05;98683.09;;;5.29;100.00
43701;BME280;58809;47.984;7.964;2023-02-04T01:02:06;98680.56;;;5.27;100.00
43701;BME280;58809;47.984;7.964;2023-02-04T01:05:08;98668.53;;;5.25;100.00
43701;BME280;58809;47.984;7.964;2023-02-04T01:08:11;98683.81;;;5.31;100.00
43701;BME280;58809;47.984;7.964;2023-02-04T01:11:12;98684.13;;;5.39;100.00
43701;BME280;58809;47.984;7.964;2023-02-04T01:14:14;98697.44;;;5.36;100.00
43701;BME280;58809;47.984;7.964;2023-02-04T01:17:15;98701.34;;;5.30;100.00
43701;BME280;58809;47.984;7.964;2023-02-04T01:20:20;98700.84;;;5.25;100.00
43701;BME280;58809;47.984;7.964;2023-02-04T01:23:22;98699.56;;;5.31;100.00
43701;BME280;58809;47.984;7.964;2023-02-04T01:26:24;98686.75;;;5.39;100.00
43701;BME280;58809;47.984;7.964;2023-02-04T01:29:27;98692.34;;;5.46;100.00
43701;BME280;58809;47.984;7.964;2023-02-04T01:32:28;98694.25;;;5.44;100.00
43701;BME280;58809;47.984;7.964;2023-02-04T01:35:30;98699.41;;;5.45;100.00
43701;BME280;58809;47.984;7.964;2023-02-04T01:38:31;98701.31;;;5.43;100.00
43701;BME280;58809;47.984;7.964;2023-02-04T01:41:33;98698.91;;;5.40;100.00
43701;BME280;58809;47.984;7.964;2023-02-04T01:44:34;98700.59;;;5.41;100.00
43701;BME280;58809;47.984;7.964;2023-02-04T01:47:36;98697.84;;;5.43;100.00
43701;BME280;58809;47.984;7.964;2023-02-04T01:50:39;98701.53;;;5.40;100.00
43701;BME280;58809;47.984;7.964;2023-02-04T01:53:41;98707.19;;;5.47;100.00
43701;BME280;58809;47.984;7.964;2023-02-04T01:56:45;98698.69;;;5.43;100.00
43701;BME280;58809;47.984;7.964;2023-02-04T01:59:48;98703.44;;;5.38;100.00
43701;BME280;58809;47.984;7.964;2023-02-04T02:02:54;98707.63;;;5.40;100.00
43701;BME280;58809;47.984;7.964;2023-02-04T02:05:57;98698.06;;;5.39;100.00
43701;BME280;58809;47.984;7.964;2023-02-04T02:09:00;98698.28;;;5.36;100.00
43701;BME280;58809;47.984;7.964;2023-02-04T02:12:02;98690.53;;;5.35;100.00
43701;BME280;58809;47.984;7.964;2023-02-04T02:15:06;98684.69;;;5.31;100.00
43701;BME280;58809;47.984;7.964;2023-02-04T02:18:09;98685.28;;;5.35;100.00
43701;BME280;58809;47.984;7.964;2023-02-04T02:21:12;98678.56;;;5.31;100.00
43701;BME280;58809;47.984;7.964;2023-02-04T02:27:26;98683.00;;;5.30;100.00
43701;BME280;58809;47.984;7.964;2023-02-04T02:30:27;98681.31;;;5.29;100.00
43701;BME280;58809;47.984;7.964;2023-02-04T02:33:30;98676.91;;;5.30;100.00
43701;BME280;58809;47.984;7.964;2023-02-04T02:36:31;98677.75;;;5.30;100.00
43701;BME280;58809;47.984;7.964;2023-02-04T02:39:34;98664.00;;;5.27;100.00
43701;BME280;58809;47.984;7.964;2023-02-04T02:42:37;98668.78;;;5.33;100.00
43701;BME280;58809;47.984;7.964;2023-02-04T02:45:38;98663.69;;;5.31;100.00
43701;BME280;58809;47.984;7.964;2023-02-04T02:48:40;98661.88;;;5.32;100.00
43701;BME280;58809;47.984;7.964;2023-02-04T02:51:42;98658.59;;;5.41;100.00
43701;BME280;58809;47.984;7.964;2023-02-04T02:54:45;98657.91;;;5.50;100.00
43701;BME280;58809;47.984;7.964;2023-02-04T02:57:48;98652.66;;;5.50;100.00
43701;BME280;58809;47.984;7.964;2023-02-04T03:00:51;98663.25;;;5.49;100.00
43701;BME280;58809;47.984;7.964;2023-02-04T03:03:54;98664.00;;;5.51;100.00
43701;BME280;58809;47.984;7.964;2023-02-04T03:06:56;98667.84;;;5.58;100.00
43701;BME280;58809;47.984;7.964;2023-02-04T03:09:58;98664.16;;;5.61;100.00
43701;BME280;58809;47.984;7.964;2023-02-04T03:12:59;98665.72;;;5.63;100.00
43701;BME280;58809;47.984;7.964;2023-02-04T03:16:01;98654.13;;;5.66;100.00
43701;BME280;58809;47.984;7.964;2023-02-04T03:19:05;98659.44;;;5.77;100.00
43701;BME280;58809;47.984;7.964;2023-02-04T03:22:07;98672.22;;;5.82;100.00
43701;BME280;58809;47.984;7.964;2023-02-04T03:25:09;98668.66;;;5.83;100.00
43701;BME280;58809;47.984;7.964;2023-02-04T03:28:10;98669.38;;;5.85;100.00
43701;BME280;58809;47.984;7.964;2023-02-04T03:31:12;98674.75;;;5.83;100.00
43701;BME280;58809;47.984;7.964;2023-02-04T03:34:13;98673.78;;;5.84;100.00
43701;BME280;58809;47.984;7.964;2023-02-04T03:37:15;98681.66;;;5.84;100.00
43701;BME280;58809;47.984;7.964;2023-02-04T03:40:17;98678.56;;;5.79;100.00
43701;BME280;58809;47.984;7.964;2023-02-04T03:43:18;98670.78;;;5.77;100.00
43701;BME280;58809;47.984;7.964;2023-02-04T03:46:20;98664.56;;;5.78;100.00
43701;BME280;58809;47.984;7.964;2023-02-04T03:49:24;98653.34;;;5.76;100.00
43701;BME280;58809;47.984;7.964;2023-02-04T03:52:26;98654.91;;;5.79;100.00
43701;BME280;58809;47.984;7.964;2023-02-04T03:55:28;98663.63;;;5.79;100.00
43701;BME280;58809;47.984;7.964;2023-02-04T03:58:29;98669.94;;;5.77;100.00
43701;BME280;58809;47.984;7.964;2023-02-04T04:01:31;98675.22;;;5.77;100.00
43701;BME280;58809;47.984;7.964;2023-02-04T04:04:32;98676.59;;;5.70;100.00
43701;BME280;58809;47.984;7.964;2023-02-04T04:07:34;98669.88;;;5.66;100.00
43701;BME280;58809;47.984;7.964;2023-02-04T04:10:35;98679.47;;;5.67;100.00
43701;BME280;58809;47.984;7.964;2023-02-04T04:13:37;98670.59;;;5.68;100.00
43701;BME280;58809;47.984;7.964;2023-02-04T04:16:38;98687.13;;;5.70;100.00
43701;BME280;58809;47.984;7.964;2023-02-04T04:19:40;98691.50;;;5.69;100.00
43701;BME280;58809;47.984;7.964;2023-02-04T04:22:41;98695.22;;;5.67;100.00
43701;BME280;58809;47.984;7.964;2023-02-04T04:25:43;98691.63;;;5.68;100.00
43701;BME280;58809;47.984;7.964;2023-02-04T04:28:45;98684.22;;;5.62;100.00
43701;BME280;58809;47.984;7.964;2023-02-04T04:31:46;98690.19;;;5.64;100.00
43701;BME280;58809;47.984;7.964;2023-02-04T04:34:48;98682.88;;;5.56;100.00
43701;BME280;58809;47.984;7.964;2023-02-04T04:37:49;98680.03;;;5.59;100.00
43701;BME280;58809;47.984;7.964;2023-02-04T04:40:51;98688.78;;;5.71;100.00
43701;BME280;58809;47.984;7.964;2023-02-04T04:43:52;98693.09;;;5.72;100.00
43701;BME280;58809;47.984;7.964;2023-02-04T04:46:54;98683.88;;;5.66;100.00
43701;BME280;58809;47.984;7.964;2023-02-04T04:49:55;98687.44;;;5.65;100.00
43701;BME280;58809;47.984;7.964;2023-02-04T04:52:57;98688.88;;;5.69;100.00
43701;BME280;58809;47.984;7.964;2023-02-04T04:55:58;98677.69;;;5.78;100.00
43701;BME280;58809;47.984;7.964;2023-02-04T04:59:00;98684.16;;;5.86;100.00
43701;BME280;58809;47.984;7.964;2023-02-04T05:02:01;98677.00;;;5.88;100.00
43701;BME280;58809;47.984;7.964;2023-02-04T05:05:03;98677.97;;;5.87;100.00
43701;BME280;58809;47.984;7.964;2023-02-04T05:08:08;98681.94;;;5.92;100.00
43701;BME280;58809;47.984;7.964;2023-02-04T05:11:13;98684.38;;;5.95;100.00
43701;BME280;58809;47.984;7.964;2023-02-04T05:14:14;98680.53;;;6.00;100.00
43701;BME280;58809;47.984;7.964;2023-02-04T05:17:16;98678.63;;;6.02;100.00
43701;BME280;58809;47.984;7.964;2023-02-04T05:20:17;98687.34;;;6.02;100.00
43701;BME280;58809;47.984;7.964;2023-02-04T05:23:19;98686.63;;;6.00;100.00
43701;BME280;58809;47.984;7.964;2023-02-04T05:26:20;98691.88;;;6.00;100.00
43701;BME280;58809;47.984;7.964;2023-02-04T05:29:30;98687.72;;;5.97;100.00
43701;BME280;58809;47.984;7.964;2023-02-04T05:32:32;98691.16;;;5.98;100.00
43701;BME280;58809;47.984;7.964;2023-02-04T05:35:33;98690.34;;;5.97;100.00
43701;BME280;58809;47.984;7.964;2023-02-04T05:38:35;98690.22;;;5.99;100.00
43701;BME280;58809;47.984;7.964;2023-02-04T05:41:36;98695.34;;;6.01;100.00
43701;BME280;58809;47.984;7.964;2023-02-04T05:44:38;98698.81;;;6.01;100.00
43701;BME280;58809;47.984;7.964;2023-02-04T05:47:39;98696.31;;;6.00;100.00
43701;BME280;58809;47.984;7.964;2023-02-04T05:50:41;98696.19;;;6.01;100.00
43701;BME280;58809;47.984;7.964;2023-02-04T05:53:42;98701.03;;;5.94;100.00
43701;BME280;58809;47.984;7.964;2023-02-04T05:56:45;98691.00;;;5.88;100.00
43701;BME280;58809;47.984;7.964;2023-02-04T05:59:47;98697.09;;;5.89;100.00
43701;BME280;58809;47.984;7.964;2023-02-04T06:02:48;98691.72;;;5.90;100.00
43701;BME280;58809;47.984;7.964;2023-02-04T06:05:50;98694.22;;;5.92;100.00
43701;BME280;58809;47.984;7.964;2023-02-04T06:08:51;98705.13;;;5.98;100.00
43701;BME280;58809;47.984;7.964;2023-02-04T06:11:53;98705.75;;;6.02;100.00
43701;BME280;58809;47.984;7.964;2023-02-04T06:14:54;98709.34;;;6.01;100.00
43701;BME280;58809;47.984;7.964;2023-02-04T06:17:56;98711.00;;;6.02;100.00
43701;BME280;58809;47.984;7.964;2023-02-04T06:20:58;98716.16;;;6.04;100.00
43701;BME280;58809;47.984;7.964;2023-02-04T06:24:00;98719.38;;;6.07;100.00
43701;BME280;58809;47.984;7.964;2023-02-04T06:27:01;98723.31;;;6.02;100.00
43701;BME280;58809;47.984;7.964;2023-02-04T06:30:03;98718.56;;;6.07;100.00
43701;BME280;58809;47.984;7.964;2023-02-04T06:33:05;98730.88;;;6.06;100.00
43701;BME280;58809;47.984;7.964;2023-02-04T06:36:06;98724.63;;;6.07;100.00
43701;BME280;58809;47.984;7.964;2023-02-04T06:39:08;98722.13;;;6.06;100.00
43701;BME280;58809;47.984;7.964;2023-02-04T06:42:10;98727.16;;;6.09;100.00
43701;BME280;58809;47.984;7.964;2023-02-04T06:45:11;98724.25;;;6.01;100.00
43701;BME280;58809;47.984;7.964;2023-02-04T06:48:12;98726.03;;;6.00;100.00
43701;BME280;58809;47.984;7.964;2023-02-04T06:51:14;98732.28;;;5.99;100.00
43701;BME280;58809;47.984;7.964;2023-02-04T06:54:16;98735.63;;;6.01;100.00
43701;BME280;58809;47.984;7.964;2023-02-04T06:57:18;98744.81;;;6.07;100.00
43701;BME280;58809;47.984;7.964;2023-02-04T07:00:19;98745.88;;;6.04;100.00
43701;BME280;58809;47.984;7.964;2023-02-04T07:03:21;98750.31;;;6.04;100.00
43701;BME280;58809;47.984;7.964;2023-02-04T07:06:22;98747.69;;;6.04;100.00
43701;BME280;58809;47.984;7.964;2023-02-04T07:09:24;98753.91;;;6.03;100.00
43701;BME280;58809;47.984;7.964;2023-02-04T07:12:26;98751.88;;;6.06;100.00
43701;BME280;58809;47.984;7.964;2023-02-04T07:15:27;98742.31;;;6.05;100.00
43701;BME280;58809;47.984;7.964;2023-02-04T07:18:29;98763.94;;;6.09;100.00
43701;BME280;58809;47.984;7.964;2023-02-04T07:21:30;98762.03;;;6.11;100.00
43701;BME280;58809;47.984;7.964;2023-02-04T07:24:32;98763.72;;;6.12;100.00
43701;BME280;58809;47.984;7.964;2023-02-04T07:27:33;98767.06;;;6.14;100.00
43701;BME280;58809;47.984;7.964;2023-02-04T07:30:35;98769.34;;;6.19;100.00
43701;BME280;58809;47.984;7.964;2023-02-04T07:33:37;98770.31;;;6.18;100.00
43701;BME280;58809;47.984;7.964;2023-02-04T07:36:39;98770.44;;;6.16;100.00
43701;BME280;58809;47.984;7.964;2023-02-04T07:39:41;98779.25;;;6.15;100.00
43701;BME280;58809;47.984;7.964;2023-02-04T07:42:43;98771.25;;;6.16;100.00
43701;BME280;58809;47.984;7.964;2023-02-04T07:45:50;98773.78;;;6.18;100.00
43701;BME280;58809;47.984;7.964;2023-02-04T07:48:51;98776.78;;;6.25;100.00
43701;BME280;58809;47.984;7.964;2023-02-04T07:51:53;98780.50;;;6.33;100.00
43701;BME280;58809;47.984;7.964;2023-02-04T07:54:54;98780.63;;;6.32;100.00
43701;BME280;58809;47.984;7.964;2023-02-04T07:57:56;98792.19;;;6.29;100.00
43701;BME280;58809;47.984;7.964;2023-02-04T08:00:58;98787.44;;;6.34;100.00
43701;BME280;58809;47.984;7.964;2023-02-04T08:03:59;98796.16;;;6.35;100.00
43701;BME280;58809;47.984;7.964;2023-02-04T08:07:01;98794.84;;;6.29;100.00
43701;BME280;58809;47.984;7.964;2023-02-04T08:10:04;98789.84;;;6.38;100.00
43701;BME280;58809;47.984;7.964;2023-02-04T08:13:05;98793.56;;;6.46;100.00
43701;BME280;58809;47.984;7.964;2023-02-04T08:16:07;98797.75;;;6.49;100.00
43701;BME280;58809;47.984;7.964;2023-02-04T08:19:10;98791.66;;;6.48;100.00
43701;BME280;58809;47.984;7.964;2023-02-04T08:22:13;98790.59;;;6.51;100.00
43701;BME280;58809;47.984;7.964;2023-02-04T08:25:14;98792.31;;;6.63;100.00
43701;BME280;58809;47.984;7.964;2023-02-04T08:28:16;98794.34;;;6.71;100.00
43701;BME280;58809;47.984;7.964;2023-02-04T08:31:18;98797.09;;;6.69;100.00
43701;BME280;58809;47.984;7.964;2023-02-04T08:34:20;98794.81;;;6.76;100.00
43701;BME280;58809;47.984;7.964;2023-02-04T08:37:21;98797.56;;;6.74;100.00
43701;BME280;58809;47.984;7.964;2023-02-04T08:40:23;98802.34;;;6.81;100.00
43701;BME280;58809;47.984;7.964;2023-02-04T08:43:25;98802.00;;;6.85;100.00
43701;BME280;58809;47.984;7.964;2023-02-04T08:46:27;98807.63;;;6.92;100.00
43701;BME280;58809;47.984;7.964;2023-02-04T08:49:28;98810.75;;;6.97;100.00
43701;BME280;58809;47.984;7.964;2023-02-04T08:52:30;98818.63;;;6.97;100.00
43701;BME280;58809;47.984;7.964;2023-02-04T08:55:31;98819.72;;;6.94;100.00
43701;BME280;58809;47.984;7.964;2023-02-04T08:58:33;98820.19;;;6.88;100.00
43701;BME280;58809;47.984;7.964;2023-02-04T09:01:35;98821.16;;;6.87;100.00
43701;BME280;58809;47.984;7.964;2023-02-04T09:04:37;98816.47;;;6.80;100.00
43701;BME280;58809;47.984;7.964;2023-02-04T09:07:38;98826.50;;;6.74;100.00
43701;BME280;58809;47.984;7.964;2023-02-04T09:10:40;98830.69;;;6.77;100.00
43701;BME280;58809;47.984;7.964;2023-02-04T09:13:41;98843.16;;;6.86;100.00
43701;BME280;58809;47.984;7.964;2023-02-04T09:16:43;98841.72;;;6.93;100.00
43701;BME280;58809;47.984;7.964;2023-02-04T09:19:44;98846.03;;;6.94;100.00
43701;BME280;58809;47.984;7.964;2023-02-04T09:22:46;98847.59;;;6.97;100.00
43701;BME280;58809;47.984;7.964;2023-02-04T09:25:50;98840.19;;;7.02;100.00
43701;BME280;58809;47.984;7.964;2023-02-04T09:28:52;98839.09;;;7.05;100.00
43701;BME280;58809;47.984;7.964;2023-02-04T09:31:53;98843.53;;;7.04;100.00
43701;BME280;58809;47.984;7.964;2023-02-04T09:34:55;98844.97;;;7.20;100.00
43701;BME280;58809;47.984;7.964;2023-02-04T09:37:56;98854.31;;;7.24;100.00
43701;BME280;58809;47.984;7.964;2023-02-04T09:41:04;98868.44;;;7.23;100.00
43701;BME280;58809;47.984;7.964;2023-02-04T09:44:14;98868.91;;;7.17;100.00
43701;BME280;58809;47.984;7.964;2023-02-04T09:47:21;98865.78;;;7.23;100.00
43701;BME280;58809;47.984;7.964;2023-02-04T09:50:26;98866.78;;;7.22;100.00
43701;BME280;58809;47.984;7.964;2023-02-04T09:53:28;98876.09;;;7.37;100.00
43701;BME280;58809;47.984;7.964;2023-02-04T09:56:30;98872.97;;;7.43;100.00
43701;BME280;58809;47.984;7.964;2023-02-04T09:59:32;98880.28;;;7.40;100.00
43701;BME280;58809;47.984;7.964;2023-02-04T10:02:33;98868.91;;;7.28;100.00
43701;BME280;58809;47.984;7.964;2023-02-04T10:05:35;98874.91;;;7.30;100.00
43701;BME280;58809;47.984;7.964;2023-02-04T10:08:38;98879.56;;;7.38;100.00
43701;BME280;58809;47.984;7.964;2023-02-04T10:11:41;98878.03;;;7.35;100.00
43701;BME280;58809;47.984;7.964;2023-02-04T10:14:43;98876.34;;;7.23;100.00
43701;BME280;58809;47.984;7.964;2023-02-04T10:17:50;98886.16;;;7.32;100.00
43701;BME280;58809;47.984;7.964;2023-02-04T10:21:13;98885.81;;;7.25;100.00
43701;BME280;58809;47.984;7.964;2023-02-04T10:24:17;98889.59;;;7.21;100.00
43701;BME280;58809;47.984;7.964;2023-02-04T10:27:20;98891.19;;;7.24;100.00
43701;BME280;58809;47.984;7.964;2023-02-04T10:30:27;98885.31;;;7.31;100.00
43701;BME280;58809;47.984;7.964;2023-02-04T10:33:31;98883.41;;;7.33;100.00
43701;BME280;58809;47.984;7.964;2023-02-04T10:36:35;98885.91;;;7.46;100.00
43701;BME280;58809;47.984;7.964;2023-02-04T10:39:41;98881.13;;;7.63;100.00
43701;BME280;58809;47.984;7.964;2023-02-04T10:42:47;98869.38;;;7.67;100.00
43701;BME280;58809;47.984;7.964;2023-02-04T10:46:03;98864.09;;;7.89;100.00
43701;BME280;58809;47.984;7.964;2023-02-04T10:49:15;98865.69;;;8.13;100.00
43701;BME280;58809;47.984;7.964;2023-02-04T10:52:18;98864.81;;;8.24;100.00
43701;BME280;58809;47.984;7.964;2023-02-04T10:55:22;98869.19;;;8.35;100.00
43701;BME280;58809;47.984;7.964;2023-02-04T10:58:29;98866.53;;;8.57;100.00
43701;BME280;58809;47.984;7.964;2023-02-04T11:01:31;98869.50;;;8.85;100.00
43701;BME280;58809;47.984;7.964;2023-02-04T11:04:33;98870.50;;;8.94;100.00
43701;BME280;58809;47.984;7.964;2023-02-04T11:07:34;98868.19;;;9.00;100.00
43701;BME280;58809;47.984;7.964;2023-02-04T11:10:36;98870.38;;;8.95;100.00
43701;BME280;58809;47.984;7.964;2023-02-04T11:16:50;98870.22;;;9.49;100.00
43701;BME280;58809;47.984;7.964;2023-02-04T11:19:51;98874.19;;;9.64;97.90
43701;BME280;58809;47.984;7.964;2023-02-04T11:22:53;98871.03;;;9.80;97.60
43701;BME280;58809;47.984;7.964;2023-02-04T11:26:14;98869.34;;;9.79;96.06
43701;BME280;58809;47.984;7.964;2023-02-04T11:32:34;98859.16;;;9.74;95.44
43701;BME280;58809;47.984;7.964;2023-02-04T11:35:38;98865.25;;;9.65;95.55
43701;BME280;58809;47.984;7.964;2023-02-04T11:38:45;98865.81;;;9.59;96.15
43701;BME280;58809;47.984;7.964;2023-02-04T11:41:47;98867.88;;;9.55;95.73
43701;BME280;58809;47.984;7.964;2023-02-04T11:44:58;98876.38;;;9.59;94.91
43701;BME280;58809;47.984;7.964;2023-02-04T11:48:02;98879.22;;;9.77;94.16
43701;BME280;58809;47.984;7.964;2023-02-04T11:51:13;98868.97;;;9.83;93.50
43701;BME280;58809;47.984;7.964;2023-02-04T11:54:17;98873.94;;;9.77;90.95
43701;BME280;58809;47.984;7.964;2023-02-04T11:57:19;98864.75;;;9.71;91.65
43701;BME280;58809;47.984;7.964;2023-02-04T12:00:23;98869.69;;;9.55;91.91
43701;BME280;58809;47.984;7.964;2023-02-04T12:03:30;98871.31;;;9.15;91.14
43701;BME280;58809;47.984;7.964;2023-02-04T12:06:35;98869.47;;;9.06;93.16
43701;BME280;58809;47.984;7.964;2023-02-04T12:09:46;98867.31;;;9.21;93.13
43701;BME280;58809;47.984;7.964;2023-02-04T12:12:50;98865.56;;;9.31;92.72
43701;BME280;58809;47.984;7.964;2023-02-04T12:16:00;98862.81;;;9.42;90.73
43701;BME280;58809;47.984;7.964;2023-02-04T12:19:02;98862.84;;;9.52;90.99
43701;BME280;58809;47.984;7.964;2023-02-04T12:22:04;98863.03;;;9.60;89.88
43701;BME280;58809;47.984;7.964;2023-02-04T12:25:06;98867.34;;;9.61;86.11
43701;BME280;58809;47.984;7.964;2023-02-04T12:28:07;98873.75;;;9.69;83.81
43701;BME280;58809;47.984;7.964;2023-02-04T12:31:09;98873.25;;;9.85;81.71
43701;BME280;58809;47.984;7.964;2023-02-04T12:34:11;98873.97;;;9.87;80.71
43701;BME280;58809;47.984;7.964;2023-02-04T12:37:12;98875.03;;;9.74;78.95
43701;BME280;58809;47.984;7.964;2023-02-04T12:40:15;98874.06;;;9.75;79.72
43701;BME280;58809;47.984;7.964;2023-02-04T12:43:17;98867.66;;;9.78;80.52
43701;BME280;58809;47.984;7.964;2023-02-04T12:46:19;98867.84;;;9.86;80.19
43701;BME280;58809;47.984;7.964;2023-02-04T12:49:20;98877.63;;;10.05;78.69
43701;BME280;58809;47.984;7.964;2023-02-04T12:52:24;98883.13;;;9.73;75.64
43701;BME280;58809;47.984;7.964;2023-02-04T12:55:27;98877.34;;;9.58;75.93
43701;BME280;58809;47.984;7.964;2023-02-04T12:58:29;98878.63;;;9.63;75.14
43701;BME280;58809;47.984;7.964;2023-02-04T13:01:31;98871.00;;;9.70;74.26
43701;BME280;58809;47.984;7.964;2023-02-04T13:04:33;98881.22;;;9.54;74.30
43701;BME280;58809;47.984;7.964;2023-02-04T13:07:38;98887.31;;;9.44;74.48
43701;BME280;58809;47.984;7.964;2023-02-04T13:10:41;98889.78;;;9.36;74.21
43701;BME280;58809;47.984;7.964;2023-02-04T13:13:43;98892.38;;;9.27;76.19
43701;BME280;58809;47.984;7.964;2023-02-04T13:16:44;98887.50;;;9.22;75.43
43701;BME280;58809;47.984;7.964;2023-02-04T13:19:46;98895.66;;;9.19;75.27
43701;BME280;58809;47.984;7.964;2023-02-04T13:22:47;98894.47;;;9.02;75.33
43701;BME280;58809;47.984;7.964;2023-02-04T13:25:49;98892.41;;;9.05;75.64
43701;BME280;58809;47.984;7.964;2023-02-04T13:28:50;98883.56;;;8.95;75.86
43701;BME280;58809;47.984;7.964;2023-02-04T13:31:52;98887.13;;;9.05;76.70
43701;BME280;58809;47.984;7.964;2023-02-04T13:34:53;98887.28;;;9.14;77.89
43701;BME280;58809;47.984;7.964;2023-02-04T13:37:55;98894.88;;;9.28;78.69
43701;BME280;58809;47.984;7.964;2023-02-04T13:40:56;98895.56;;;8.99;79.28
43701;BME280;58809;47.984;7.964;2023-02-04T13:43:58;98885.50;;;8.93;80.99
43701;BME280;58809;47.984;7.964;2023-02-04T13:46:59;98897.22;;;9.00;81.97
43701;BME280;58809;47.984;7.964;2023-02-04T13:50:01;98899.94;;;8.89;82.47
43701;BME280;58809;47.984;7.964;2023-02-04T13:53:03;98899.22;;;8.87;84.37
43701;BME280;58809;47.984;7.964;2023-02-04T13:56:04;98894.66;;;8.89;84.58
43701;BME280;58809;47.984;7.964;2023-02-04T13:59:06;98901.09;;;8.96;84.60
43701;BME280;58809;47.984;7.964;2023-02-04T14:02:08;98905.69;;;8.94;84.27
43701;BME280;58809;47.984;7.964;2023-02-04T14:05:09;98891.38;;;8.76;85.81
43701;BME280;58809;47.984;7.964;2023-02-04T14:08:11;98907.22;;;8.76;86.96
43701;BME280;58809;47.984;7.964;2023-02-04T14:11:12;98911.31;;;8.69;87.21
43701;BME280;58809;47.984;7.964;2023-02-04T14:14:14;98908.47;;;8.60;87.65
43701;BME280;58809;47.984;7.964;2023-02-04T14:17:16;98913.97;;;8.69;87.29
43701;BME280;58809;47.984;7.964;2023-02-04T14:20:17;98933.63;;;8.64;86.20
43701;BME280;58809;47.984;7.964;2023-02-04T14:23:19;98932.50;;;8.46;85.94
43701;BME280;58809;47.984;7.964;2023-02-04T14:26:20;98932.38;;;8.47;86.08
43701;BME280;58809;47.984;7.964;2023-02-04T14:29:22;98930.44;;;8.50;85.81
43701;BME280;58809;47.984;7.964;2023-02-04T14:32:23;98937.41;;;8.51;85.66
43701;BME280;58809;47.984;7.964;2023-02-04T14:35:25;98936.31;;;8.53;85.46
43701;BME280;58809;47.984;7.964;2023-02-04T14:38:27;98933.63;;;8.64;85.68
43701;BME280;58809;47.984;7.964;2023-02-04T14:41:31;98926.75;;;8.73;83.29
43701;BME280;58809;47.984;7.964;2023-02-04T14:44:32;98935.91;;;8.90;83.37
43701;BME280;58809;47.984;7.964;2023-02-04T14:47:34;98936.47;;;9.05;82.40
43701;BME280;58809;47.984;7.964;2023-02-04T14:50:36;98938.75;;;8.98;82.42
43701;BME280;58809;47.984;7.964;2023-02-04T14:53:38;98946.22;;;8.72;82.89
43701;BME280;58809;47.984;7.964;2023-02-04T14:56:44;98941.28;;;8.46;84.79
43701;BME280;58809;47.984;7.964;2023-02-04T14:59:48;98944.16;;;8.32;85.32
43701;BME280;58809;47.984;7.964;2023-02-04T15:02:49;98948.00;;;8.28;85.53
43701;BME280;58809;47.984;7.964;2023-02-04T15:05:50;98946.19;;;8.28;85.55
43701;BME280;58809;47.984;7.964;2023-02-04T15:08:52;98943.31;;;8.32;86.19
43701;BME280;58809;47.984;7.964;2023-02-04T15:11:54;98941.53;;;8.32;86.24
43701;BME280;58809;47.984;7.964;2023-02-04T15:14:56;98943.47;;;8.19;86.79
43701;BME280;58809;47.984;7.964;2023-02-04T15:17:57;98943.25;;;7.99;86.70
43701;BME280;58809;47.984;7.964;2023-02-04T15:20:59;98941.72;;;7.74;87.60
43701;BME280;58809;47.984;7.964;2023-02-04T15:24:01;98945.19;;;7.52;88.26
43701;BME280;58809;47.984;7.964;2023-02-04T15:27:02;98943.63;;;7.38;89.50
43701;BME280;58809;47.984;7.964;2023-02-04T15:30:04;98945.91;;;7.43;89.93
43701;BME280;58809;47.984;7.964;2023-02-04T15:33:05;98943.53;;;7.51;89.75
43701;BME280;58809;47.984;7.964;2023-02-04T15:36:07;98945.28;;;7.62;90.52
43701;BME280;58809;47.984;7.964;2023-02-04T15:39:08;98947.34;;;7.69;90.45
43701;BME280;58809;47.984;7.964;2023-02-04T15:42:10;98955.00;;;7.61;91.98
43701;BME280;58809;47.984;7.964;2023-02-04T15:45:11;98952.84;;;7.44;93.24
43701;BME280;58809;47.984;7.964;2023-02-04T15:48:13;98952.91;;;7.20;94.61
43701;BME280;58809;47.984;7.964;2023-02-04T15:51:16;98960.06;;;7.06;96.41
43701;BME280;58809;47.984;7.964;2023-02-04T15:54:17;98954.78;;;6.95;97.45
43701;BME280;58809;47.984;7.964;2023-02-04T15:57:19;98954.25;;;6.79;98.36
43701;BME280;58809;47.984;7.964;2023-02-04T16:00:20;98958.13;;;6.62;100.00
43701;BME280;58809;47.984;7.964;2023-02-04T16:03:24;98965.66;;;6.42;100.00
43701;BME280;58809;47.984;7.964;2023-02-04T16:06:25;98967.50;;;6.29;100.00
43701;BME280;58809;47.984;7.964;2023-02-04T16:09:27;98974.72;;;6.14;100.00
43701;BME280;58809;47.984;7.964;2023-02-04T16:12:28;98971.66;;;5.94;100.00
43701;BME280;58809;47.984;7.964;2023-02-04T16:15:30;98964.75;;;5.81;100.00
43701;BME280;58809;47.984;7.964;2023-02-04T16:18:32;98965.63;;;5.68;100.00